Time;durP1;ratioP1;P1;durP2;ratioP2;P2;SDS_P1;SDS_P2;PMS_P1;PMS_P2;Temp;Humidity;BMP_temperature;BMP_pressure;BME280_temperature;BME280_humidity;BME280_pressure;Samples;Min_cycle;Max_cycle;Signal;HPM_P1;HPM_P2
2023/03/04 00:02:21;;;;;;;61.30;26.83;;;0.60;99.90;;;;;;2603057;54;20026;31
2023/03/04 00:04:58;;;;;;;60.85;26.35;;;0.60;99.90;;;;;;2603202;54;21052;31
2023/03/04 00:07:39;;;;;;;56.58;24.67;;;0.60;99.90;;;;;;2772827;31;21653;31
2023/03/04 00:10:19;;;;;;;55.72;25.25;;;0.60;99.90;;;;;;2621292;47;20053;31
2023/03/04 00:12:55;;;;;;;55.97;25.45;;;0.60;99.90;;;;;;2621521;47;20030;31
2023/03/04 00:15:32;;;;;;;55.70;24.20;;;0.60;99.90;;;;;;2603033;54;20854;31
2023/03/04 00:18:10;;;;;;;48.72;23.13;;;0.60;99.90;;;;;;2602979;54;20918;31
2023/03/04 00:20:43;;;;;;;49.45;21.90;;;0.50;99.90;;;;;;2603008;54;20745;31
2023/03/04 00:23:22;;;;;;;48.88;22.13;;;0.60;99.90;;;;;;2603161;54;20085;31
2023/03/04 00:25:58;;;;;;;50.90;22.00;;;0.60;99.90;;;;;;2603065;54;20846;31
2023/03/04 00:28:32;;;;;;;47.45;22.45;;;0.60;99.90;;;;;;2621339;47;20030;31
2023/03/04 00:31:12;;;;;;;46.30;21.92;;;0.60;99.90;;;;;;2603127;54;20049;31
2023/03/04 00:33:49;;;;;;;44.05;20.65;;;0.60;99.90;;;;;;2602217;54;20910;31
2023/03/04 00:36:25;;;;;;;39.20;20.20;;;0.70;99.90;;;;;;2602998;54;20026;31
2023/03/04 00:39:07;;;;;;;42.92;21.52;;;0.60;99.90;;;;;;2602868;54;20026;31
2023/03/04 00:41:44;;;;;;;45.40;21.75;;;0.70;99.90;;;;;;2602708;54;20101;31
2023/03/04 00:44:20;;;;;;;42.30;21.30;;;0.70;99.90;;;;;;2603591;54;20026;31
2023/03/04 00:46:57;;;;;;;40.60;20.90;;;0.70;99.90;;;;;;2603724;54;20742;31
2023/03/04 00:49:32;;;;;;;39.75;20.70;;;0.70;99.90;;;;;;2602885;54;20239;31
2023/03/04 00:52:07;;;;;;;35.57;17.53;;;0.80;99.90;;;;;;2622080;46;20053;31
2023/03/04 00:54:47;;;;;;;40.83;20.05;;;0.70;99.90;;;;;;2603767;54;20911;31
2023/03/04 00:57:26;;;;;;;40.60;18.35;;;0.70;99.90;;;;;;2603809;54;20936;31
2023/03/04 01:00:02;;;;;;;36.90;19.90;;;0.70;99.90;;;;;;2603666;54;20866;31
2023/03/04 01:02:37;;;;;;;40.80;17.98;;;0.70;99.90;;;;;;2603616;54;20027;31
2023/03/04 01:05:18;;;;;;;34.35;17.60;;;0.70;99.90;;;;;;2608864;46;20026;31
2023/03/04 01:07:54;;;;;;;40.30;18.83;;;0.80;99.90;;;;;;2602906;54;20033;31
2023/03/04 01:10:35;;;;;;;38.00;17.10;;;0.80;99.90;;;;;;2603570;54;20032;31
2023/03/04 01:13:14;;;;;;;35.22;17.70;;;0.80;99.90;;;;;;2602964;54;20038;31
2023/03/04 01:15:50;;;;;;;35.10;17.02;;;0.80;99.90;;;;;;2613429;46;20081;31
2023/03/04 01:18:29;;;;;;;32.95;17.30;;;0.80;99.90;;;;;;2603601;54;20048;31
2023/03/04 01:21:07;;;;;;;32.92;17.73;;;0.80;99.90;;;;;;2603440;54;20120;31
2023/03/04 01:23:44;;;;;;;;;;;0.80;99.90;;;;;;2603968;54;20086;31
2023/03/04 01:26:22;;;;;;;34.70;17.67;;;0.90;99.90;;;;;;2622256;46;19935;31
2023/03/04 01:28:59;;;;;;;27.13;14.73;;;0.90;99.90;;;;;;2603425;54;20745;31
2023/03/04 01:31:35;;;;;;;33.45;17.38;;;0.90;99.90;;;;;;2603551;54;20961;31
2023/03/04 01:34:14;;;;;;;35.42;16.25;;;0.90;99.90;;;;;;2603705;54;20096;31
2023/03/04 01:36:54;;;;;;;33.38;16.63;;;0.90;99.90;;;;;;2603544;54;20065;31
2023/03/04 01:39:27;;;;;;;33.90;16.48;;;0.90;99.90;;;;;;2603513;54;20078;31
2023/03/04 01:42:07;;;;;;;35.10;16.92;;;0.90;99.90;;;;;;2602752;54;20901;31
2023/03/04 01:44:44;;;;;;;35.67;17.83;;;0.90;99.90;;;;;;2618407;46;20035;31
2023/03/04 01:47:24;;;;;;;39.33;19.55;;;0.90;99.90;;;;;;2603602;54;20920;31
2023/03/04 01:49:59;;;;;;;33.45;16.38;;;0.90;99.90;;;;;;2603718;54;20022;31
2023/03/04 01:52:36;;;;;;;35.15;18.00;;;1.00;99.90;;;;;;2622046;46;20034;31
2023/03/04 01:55:17;;;;;;;29.33;16.42;;;0.90;99.90;;;;;;2603362;54;20026;31
2023/03/04 01:57:56;;;;;;;31.95;17.33;;;0.90;99.90;;;;;;2603611;54;20091;31
2023/03/04 02:00:32;;;;;;;28.83;16.65;;;1.00;99.90;;;;;;2603434;54;20042;31
2023/03/04 02:03:12;;;;;;;31.75;17.25;;;1.00;99.90;;;;;;2603616;54;20139;31
2023/03/04 02:05:49;;;;;;;31.05;17.48;;;1.00;99.90;;;;;;2603521;54;20049;31
2023/03/04 02:08:26;;;;;;;31.33;16.65;;;1.10;99.90;;;;;;2603576;54;20120;31
2023/03/04 02:11:06;;;;;;;32.90;16.73;;;1.00;99.90;;;;;;2622214;46;20030;31
2023/03/04 02:13:44;;;;;;;34.37;17.20;;;1.00;99.90;;;;;;2603380;54;20027;31
2023/03/04 02:16:20;;;;;;;30.17;17.10;;;1.10;99.90;;;;;;2603386;54;20012;31
2023/03/04 02:18:59;;;;;;;35.20;17.42;;;1.10;99.90;;;;;;2603606;54;20023;31
2023/03/04 02:21:34;;;;;;;33.72;17.40;;;1.10;99.90;;;;;;2603395;54;20027;31
2023/03/04 02:24:14;;;;;;;31.63;16.48;;;1.00;99.90;;;;;;2622044;46;20760;31
2023/03/04 02:29:29;;;;;;;26.45;15.40;;;1.00;99.90;;;;;;2621782;46;20029;31
2023/03/04 02:32:05;;;;;;;25.40;14.00;;;1.10;99.90;;;;;;2603277;54;20032;31
2023/03/04 02:34:46;;;;;;;26.07;15.33;;;1.10;99.90;;;;;;2603207;54;20863;31
2023/03/04 02:37:22;;;;;;;28.57;16.00;;;1.10;99.90;;;;;;2603377;54;20063;31
2023/03/04 02:40:03;;;;;;;27.83;15.05;;;1.10;99.90;;;;;;2603428;54;20027;31
2023/03/04 02:42:47;;;;;;;29.23;16.13;;;1.10;99.90;;;;;;2603582;54;20136;31
2023/03/04 02:45:41;;;;;;;25.88;15.18;;;1.10;99.90;;;;;;2621606;46;20911;31
2023/03/04 02:48:18;;;;;;;26.65;15.90;;;1.10;99.90;;;;;;2603088;54;20033;31
2023/03/04 02:50:56;;;;;;;27.08;15.02;;;1.10;99.90;;;;;;2603352;54;20911;31
2023/03/04 02:53:34;;;;;;;28.80;14.50;;;1.10;99.90;;;;;;2603396;54;20105;31
2023/03/04 02:56:12;;;;;;;28.70;15.70;;;1.00;99.90;;;;;;2603332;54;25114;31
2023/03/04 02:58:51;;;;;;;31.70;15.43;;;1.10;99.90;;;;;;2603271;54;20027;31
2023/03/04 03:01:34;;;;;;;26.70;15.30;;;1.10;99.90;;;;;;2621917;46;20030;31
2023/03/04 03:04:11;;;;;;;30.80;16.60;;;1.10;99.90;;;;;;2602435;54;20048;31
2023/03/04 03:06:47;;;;;;;30.17;16.17;;;1.10;99.90;;;;;;2603077;54;20826;31
2023/03/04 03:09:23;;;;;;;28.23;14.07;;;1.10;99.90;;;;;;2621788;46;20022;31
2023/03/04 03:11:57;;;;;;;26.88;16.50;;;1.10;99.90;;;;;;2603450;54;20100;31
2023/03/04 03:14:35;;;;;;;26.27;15.98;;;1.10;99.90;;;;;;2603253;54;20033;31
2023/03/04 03:17:15;;;;;;;26.93;16.60;;;1.10;99.90;;;;;;2602498;54;20883;31
2023/03/04 03:19:51;;;;;;;30.95;18.05;;;1.10;99.90;;;;;;2602529;54;20060;31
2023/03/04 03:22:29;;;;;;;28.80;15.50;;;1.10;99.90;;;;;;2621558;46;20763;31
2023/03/04 03:25:05;;;;;;;27.95;15.55;;;1.10;99.90;;;;;;2603436;54;20861;31
2023/03/04 03:27:40;;;;;;;;;;;1.20;99.90;;;;;;2603551;54;20030;31
2023/03/04 03:30:17;;;;;;;27.63;16.10;;;1.10;99.90;;;;;;2603145;54;20856;31
2023/03/04 03:33:00;;;;;;;29.95;17.30;;;1.10;99.90;;;;;;2603448;54;20772;31
2023/03/04 03:35:37;;;;;;;28.52;15.30;;;1.10;99.90;;;;;;2603343;54;20081;31
2023/03/04 03:40:46;;;;;;;24.25;15.30;;;1.10;99.90;;;;;;2603344;54;20056;31
2023/03/04 03:43:21;;;;;;;26.97;16.07;;;1.10;99.90;;;;;;2621014;46;20118;31
2023/03/04 03:45:57;;;;;;;29.90;15.13;;;1.10;99.90;;;;;;2621553;46;19938;31
2023/03/04 03:48:37;;;;;;;28.05;17.30;;;1.20;99.90;;;;;;2603031;54;20776;31
2023/03/04 03:51:16;;;;;;;29.42;17.00;;;1.10;99.90;;;;;;2602384;54;20195;31
2023/03/04 03:53:57;;;;;;;30.35;14.60;;;1.10;99.90;;;;;;2773282;31;22530;31
2023/03/04 03:56:33;;;;;;;29.10;16.00;;;1.20;99.90;;;;;;2621725;47;20593;31
2023/03/04 03:59:16;;;;;;;29.40;17.27;;;1.10;99.90;;;;;;2603136;54;20031;31
2023/03/04 04:01:51;;;;;;;29.17;17.10;;;1.20;99.90;;;;;;2602948;54;20203;31
2023/03/04 04:04:31;;;;;;;31.75;17.80;;;1.20;99.90;;;;;;2603142;54;20030;31
2023/03/04 04:07:10;;;;;;;35.65;20.27;;;1.20;99.90;;;;;;2603042;54;20057;31
2023/03/04 04:09:44;;;;;;;35.25;20.42;;;1.20;99.90;;;;;;2621764;47;20034;31
2023/03/04 04:12:20;;;;;;;37.20;20.02;;;1.20;99.90;;;;;;2603040;54;20081;31
2023/03/04 04:14:55;;;;;;;33.33;19.57;;;1.20;99.90;;;;;;2602929;54;20791;31
2023/03/04 04:17:31;;;;;;;34.60;20.80;;;1.20;99.90;;;;;;2621554;47;20087;31
2023/03/04 04:20:12;;;;;;;33.85;19.65;;;1.20;99.90;;;;;;2622045;46;20019;31
2023/03/04 04:22:48;;;;;;;37.63;21.40;;;1.30;99.90;;;;;;2603596;54;20026;31
2023/03/04 04:25:25;;;;;;;38.30;21.90;;;1.30;99.90;;;;;;2602961;54;20130;31
2023/03/04 04:28:03;;;;;;;39.03;21.45;;;1.30;99.90;;;;;;2603773;54;20100;31
2023/03/04 04:33:11;;;;;;;37.22;20.70;;;1.30;99.90;;;;;;2622140;46;20034;31
2023/03/04 04:35:50;;;;;;;38.80;20.20;;;1.30;99.90;;;;;;2604017;54;20160;31
2023/03/04 04:38:27;;;;;;;38.75;22.35;;;1.30;99.90;;;;;;2603739;54;20028;31
2023/03/04 04:41:03;;;;;;;39.60;22.92;;;1.30;99.90;;;;;;2603791;54;19942;31
2023/03/04 04:43:44;;;;;;;38.28;21.40;;;1.30;99.90;;;;;;2603622;54;20038;31
2023/03/04 04:46:20;;;;;;;41.47;23.65;;;1.30;99.90;;;;;;2603845;54;20100;31
2023/03/04 04:48:57;;;;;;;38.95;22.17;;;1.40;99.90;;;;;;2603617;54;20030;31
2023/03/04 04:51:41;;;;;;;37.23;21.63;;;1.30;99.90;;;;;;2602959;54;20911;31
2023/03/04 04:54:19;;;;;;;39.90;23.50;;;1.40;99.90;;;;;;2602877;54;21081;31
2023/03/04 04:56:56;;;;;;;39.80;21.30;;;1.30;99.90;;;;;;2603013;54;20136;31
2023/03/04 04:59:38;;;;;;;39.92;23.60;;;1.40;99.90;;;;;;2603000;54;20128;31
2023/03/04 05:02:14;;;;;;;39.33;22.45;;;1.40;99.90;;;;;;2602923;54;22462;31
2023/03/04 05:04:52;;;;;;;37.83;19.83;;;1.40;99.90;;;;;;2602756;54;20026;31
2023/03/04 05:07:48;;;;;;;34.30;19.77;;;1.40;99.90;;;;;;2607773;46;20179;31
2023/03/04 05:10:23;;;;;;;34.30;19.73;;;1.40;99.90;;;;;;2603891;54;20822;31
2023/03/04 05:13:04;;;;;;;30.83;17.57;;;1.40;99.90;;;;;;2603473;54;20894;31
2023/03/04 05:15:40;;;;;;;31.63;18.42;;;1.40;99.90;;;;;;2602937;54;20305;31
2023/03/04 05:18:16;;;;;;;30.45;16.55;;;1.40;99.90;;;;;;2602935;54;20899;31
2023/03/04 05:20:52;;;;;;;;;;;1.50;99.90;;;;;;2604049;54;20030;31
2023/03/04 05:23:28;;;;;;;27.40;15.00;;;2.00;99.90;;;;;;2622021;46;19934;31
2023/03/04 05:26:06;;;;;;;28.80;16.73;;;2.30;99.90;;;;;;2602767;54;20962;31
2023/03/04 05:28:44;;;;;;;30.23;15.70;;;2.30;99.90;;;;;;2603350;54;20068;31
2023/03/04 05:31:19;;;;;;;26.48;14.93;;;2.20;99.90;;;;;;2621869;46;20062;31
2023/03/04 05:33:53;;;;;;;28.43;15.93;;;2.10;99.90;;;;;;2621959;46;20026;31
2023/03/04 05:36:27;;;;;;;27.00;16.33;;;2.10;99.90;;;;;;2603837;54;20842;31
2023/03/04 05:39:02;;;;;;;29.67;16.55;;;2.00;99.90;;;;;;2603561;54;20061;31
2023/03/04 05:41:39;;;;;;;30.30;16.60;;;2.00;99.90;;;;;;2622075;46;20042;31
2023/03/04 05:44:16;;;;;;;29.65;18.05;;;1.90;99.90;;;;;;2603715;54;20190;31
2023/03/04 05:46:49;;;;;;;28.23;16.03;;;1.80;99.90;;;;;;2603423;54;20038;31
2023/03/04 05:49:24;;;;;;;27.13;16.07;;;1.80;99.90;;;;;;2603315;54;19934;31
2023/03/04 05:52:00;;;;;;;27.27;16.80;;;1.80;99.90;;;;;;2603558;54;20892;31
2023/03/04 05:54:34;;;;;;;27.10;15.10;;;1.80;99.90;;;;;;2603529;54;20732;31
2023/03/04 05:59:46;;;;;;;28.60;17.73;;;1.70;99.90;;;;;;2603544;54;20026;31
2023/03/04 06:02:20;;;;;;;30.05;16.83;;;1.80;99.90;;;;;;2603375;54;20026;31
2023/03/04 06:04:55;;;;;;;27.98;17.08;;;1.70;99.90;;;;;;2621724;46;20033;31
2023/03/04 06:07:30;;;;;;;29.15;18.45;;;1.70;99.90;;;;;;2603701;54;20085;31
2023/03/04 06:10:07;;;;;;;28.27;16.98;;;1.80;99.90;;;;;;2603419;54;20935;31
2023/03/04 06:12:43;;;;;;;27.60;15.95;;;1.70;99.90;;;;;;2603361;54;20038;31
2023/03/04 06:15:23;;;;;;;28.30;15.60;;;1.80;99.90;;;;;;2603645;54;20825;31
2023/03/04 06:17:58;;;;;;;27.23;16.40;;;1.80;99.90;;;;;;2602588;54;20034;31
2023/03/04 06:20:35;;;;;;;24.80;15.38;;;1.80;99.90;;;;;;2602625;54;20149;31
2023/03/04 06:23:13;;;;;;;25.58;15.43;;;1.80;99.90;;;;;;2603444;54;20049;31
2023/03/04 06:25:50;;;;;;;27.38;16.48;;;1.80;99.90;;;;;;2603330;54;20150;31
2023/03/04 06:28:25;;;;;;;30.05;17.27;;;1.80;99.90;;;;;;2603673;54;20849;31
2023/03/04 06:31:07;;;;;;;41.95;19.80;;;1.80;99.90;;;;;;2603476;54;20152;31
2023/03/04 06:33:45;;;;;;;31.50;19.90;;;1.80;99.90;;;;;;2604097;46;20044;31
2023/03/04 06:36:22;;;;;;;;;;;1.80;99.90;;;;;;2603866;54;20026;31
2023/03/04 06:38:57;;;;;;;26.30;14.97;;;1.90;99.90;;;;;;2622227;46;20043;31
2023/03/04 06:41:34;;;;;;;26.83;15.20;;;1.80;99.90;;;;;;2621975;46;21190;31
2023/03/04 06:44:14;;;;;;;29.08;15.02;;;1.80;99.90;;;;;;2621983;46;20265;31
2023/03/04 06:46:48;;;;;;;24.95;15.55;;;1.80;99.90;;;;;;2603357;54;20128;31
2023/03/04 06:49:27;;;;;;;26.85;15.50;;;1.80;99.90;;;;;;2621916;46;20096;31
2023/03/04 06:52:02;;;;;;;27.10;15.45;;;1.80;99.90;;;;;;2603140;54;20763;31
2023/03/04 06:54:36;;;;;;;29.23;14.85;;;1.80;99.90;;;;;;2603226;54;20104;31
2023/03/04 06:57:13;;;;;;;24.50;14.65;;;1.80;99.90;;;;;;2603414;54;20030;31
2023/03/04 06:59:50;;;;;;;22.75;12.68;;;2.00;99.90;;;;;;2603456;54;20812;31
2023/03/04 07:02:25;;;;;;;26.33;14.52;;;1.90;99.90;;;;;;2621610;46;20031;31
2023/03/04 07:05:04;;;;;;;29.40;14.23;;;1.90;99.90;;;;;;2602514;54;20031;31
2023/03/04 07:07:40;;;;;;;28.33;14.25;;;1.90;99.90;;;;;;2621881;46;21202;31
2023/03/04 07:10:15;;;;;;;26.07;14.70;;;1.90;99.90;;;;;;2603319;54;20073;31
2023/03/04 07:12:52;;;;;;;25.08;14.07;;;1.90;99.90;;;;;;2603133;54;20760;31
2023/03/04 07:15:28;;;;;;;25.42;14.75;;;2.00;99.90;;;;;;2603431;54;20839;31
2023/03/04 07:18:07;;;;;;;25.00;13.30;;;2.00;99.90;;;;;;2603322;54;20081;31
2023/03/04 07:21:00;;;;;;;26.52;13.85;;;2.00;99.90;;;;;;2603144;54;20103;31
2023/03/04 07:23:36;;;;;;;29.10;14.25;;;2.00;99.90;;;;;;2621657;46;20065;31
2023/03/04 07:26:14;;;;;;;25.88;13.07;;;2.00;99.90;;;;;;2603398;54;20887;31
2023/03/04 07:28:53;;;;;;;24.55;14.10;;;2.10;99.90;;;;;;2603295;54;20665;31
2023/03/04 07:31:29;;;;;;;28.90;13.32;;;2.10;99.90;;;;;;2621725;46;20951;31
2023/03/04 07:34:06;;;;;;;;;;;2.10;99.90;;;;;;2603085;54;20752;31
2023/03/04 07:36:46;;;;;;;35.85;14.57;;;2.10;99.90;;;;;;2603137;54;20763;31
2023/03/04 07:39:21;;;;;;;28.15;14.63;;;2.10;99.90;;;;;;2603049;54;20989;31
2023/03/04 07:41:57;;;;;;;24.60;12.52;;;2.10;99.90;;;;;;2603243;54;20940;31
2023/03/04 07:44:33;;;;;;;28.75;12.13;;;2.20;99.90;;;;;;2603323;54;20111;31
2023/03/04 07:47:08;;;;;;;22.03;11.17;;;2.20;99.90;;;;;;2603272;54;20883;31
2023/03/04 07:49:45;;;;;;;20.55;11.50;;;2.20;99.90;;;;;;2602892;54;21131;31
2023/03/04 07:52:23;;;;;;;23.60;12.50;;;2.20;99.90;;;;;;2621511;46;20914;31
2023/03/04 07:54:59;;;;;;;23.52;12.45;;;2.30;99.90;;;;;;2603277;54;20030;31
2023/03/04 07:57:35;;;;;;;;;;;2.30;99.90;;;;;;2621549;47;20038;31
2023/03/04 08:00:12;;;;;;;19.80;11.70;;;2.30;99.90;;;;;;2602985;54;20499;31
2023/03/04 08:02:48;;;;;;;21.10;13.00;;;2.30;99.90;;;;;;2603037;54;20085;31
2023/03/04 08:05:24;;;;;;;;;;;2.30;99.90;;;;;;2603280;54;20057;31
2023/03/04 08:08:02;;;;;;;29.42;15.45;;;2.30;99.90;;;;;;2621616;47;20016;31
2023/03/04 08:10:39;;;;;;;25.55;14.23;;;2.30;99.90;;;;;;2602338;54;20030;31
2023/03/04 08:13:15;;;;;;;29.60;14.95;;;2.30;99.90;;;;;;2614814;47;20052;31
2023/03/04 08:15:52;;;;;;;23.13;14.57;;;2.30;99.90;;;;;;2620977;47;20875;31
2023/03/04 08:18:29;;;;;;;29.85;15.80;;;2.30;99.90;;;;;;2603193;54;20037;31
2023/03/04 08:21:11;;;;;;;28.85;16.63;;;2.20;99.90;;;;;;2602684;54;20026;31
2023/03/04 08:23:53;;;;;;;26.05;16.30;;;2.30;99.90;;;;;;2602893;54;20023;31
2023/03/04 08:26:29;;;;;;;30.50;16.58;;;2.40;99.90;;;;;;2621622;47;20250;31
2023/03/04 08:29:05;;;;;;;31.08;16.52;;;2.40;99.90;;;;;;2621151;47;20842;31
2023/03/04 08:31:43;;;;;;;25.70;15.83;;;2.40;99.90;;;;;;2621321;47;20037;31
2023/03/04 08:34:22;;;;;;;27.42;16.48;;;2.40;99.90;;;;;;2603152;54;20085;31
2023/03/04 08:36:58;;;;;;;;;;;2.40;99.90;;;;;;2602418;54;20953;31
2023/03/04 08:39:37;;;;;;;29.30;16.65;;;2.40;99.90;;;;;;2621483;47;20819;31
2023/03/04 08:42:14;;;;;;;31.45;16.85;;;2.50;99.90;;;;;;2620628;47;20033;31
2023/03/04 08:44:53;;;;;;;27.53;16.87;;;2.50;99.90;;;;;;2603158;54;20116;31
2023/03/04 08:47:30;;;;;;;30.20;17.40;;;2.60;99.90;;;;;;2602995;54;20803;31
2023/03/04 08:50:06;;;;;;;30.63;17.48;;;2.60;99.90;;;;;;2602992;54;20085;31
2023/03/04 08:52:42;;;;;;;29.97;15.93;;;2.60;99.90;;;;;;2602176;54;19944;31
2023/03/04 08:55:20;;;;;;;34.15;16.75;;;2.70;99.90;;;;;;2602186;54;22528;31
2023/03/04 08:57:56;;;;;;;30.70;16.10;;;2.70;99.90;;;;;;2602017;54;20057;31
2023/03/04 09:00:38;;;;;;;29.55;14.80;;;2.70;99.90;;;;;;2621202;47;20072;31
2023/03/04 09:03:12;;;;;;;24.27;13.95;;;2.70;99.90;;;;;;2621158;47;20057;31
2023/03/04 09:05:52;;;;;;;21.77;14.80;;;2.80;99.90;;;;;;2603555;54;20022;31
2023/03/04 09:08:28;;;;;;;25.40;14.35;;;2.80;99.90;;;;;;2603675;54;20892;31
2023/03/04 09:11:07;;;;;;;29.30;13.87;;;2.90;99.90;;;;;;2603786;54;20031;31
2023/03/04 09:13:45;;;;;;;24.00;13.05;;;2.90;99.90;;;;;;2603587;54;21012;31
2023/03/04 09:16:20;;;;;;;22.08;13.38;;;2.90;99.90;;;;;;2621825;46;20033;31
2023/03/04 09:18:58;;;;;;;20.70;12.30;;;2.90;99.90;;;;;;2603786;54;20033;31
2023/03/04 09:21:36;;;;;;;22.50;12.50;;;3.00;99.90;;;;;;2603566;54;20089;31
2023/03/04 09:24:11;;;;;;;21.17;11.87;;;2.90;99.90;;;;;;2603551;54;20057;31
2023/03/04 09:26:57;;;;;;;27.02;12.20;;;3.00;99.90;;;;;;2603534;54;20030;31
2023/03/04 09:29:33;;;;;;;19.75;11.35;;;3.00;99.90;;;;;;2603585;54;20777;31
2023/03/04 09:32:11;;;;;;;20.48;11.05;;;3.10;99.90;;;;;;2603579;54;20085;31
2023/03/04 09:34:49;;;;;;;21.02;11.30;;;3.10;99.90;;;;;;2603698;54;20026;31
2023/03/04 09:37:24;;;;;;;22.30;11.40;;;3.20;99.90;;;;;;2621562;46;20082;31
2023/03/04 09:40:04;;;;;;;24.58;12.30;;;3.10;99.90;;;;;;2621793;46;20882;31
2023/03/04 09:42:47;;;;;;;18.50;11.20;;;3.10;99.90;;;;;;2622189;46;20774;31
2023/03/04 09:45:26;;;;;;;21.90;11.90;;;3.20;99.90;;;;;;2621877;46;20026;31
2023/03/04 09:48:04;;;;;;;20.92;12.45;;;3.20;99.90;;;;;;2622518;46;20043;31
2023/03/04 09:50:43;;;;;;;22.40;11.88;;;3.20;99.90;;;;;;2603544;54;20038;31
2023/03/04 09:53:22;;;;;;;23.73;12.43;;;3.20;99.90;;;;;;2603252;54;20034;31
2023/03/04 09:56:01;;;;;;;24.85;13.73;;;3.20;99.90;;;;;;2603691;54;20242;31
2023/03/04 09:58:39;;;;;;;25.00;13.60;;;3.10;99.90;;;;;;2603206;54;20897;31
2023/03/04 10:01:25;;;;;;;19.55;10.70;;;3.20;99.90;;;;;;2602874;54;20097;31
2023/03/04 10:04:04;;;;;;;23.95;13.27;;;3.20;99.90;;;;;;2603474;54;19934;31
2023/03/04 10:06:45;;;;;;;25.05;12.30;;;3.20;99.90;;;;;;2602794;54;20768;31
2023/03/04 10:09:24;;;;;;;20.65;12.05;;;3.20;99.90;;;;;;2606239;46;20851;31
2023/03/04 10:12:06;;;;;;;22.35;12.10;;;3.20;99.90;;;;;;2602496;54;20069;31
2023/03/04 10:14:45;;;;;;;23.15;11.63;;;3.20;99.90;;;;;;2603512;54;20026;31
2023/03/04 10:17:26;;;;;;;25.10;13.43;;;3.20;99.90;;;;;;2603042;54;20907;31
2023/03/04 10:20:03;;;;;;;22.50;13.43;;;3.30;99.90;;;;;;2602598;54;20050;31
2023/03/04 10:22:41;;;;;;;22.00;12.60;;;3.30;99.90;;;;;;2603514;54;20105;31
2023/03/04 10:25:20;;;;;;;24.20;12.77;;;3.40;99.90;;;;;;2603337;54;20824;31
2023/03/04 10:27:57;;;;;;;22.10;13.20;;;3.40;99.90;;;;;;2603570;54;20037;31
2023/03/04 10:30:41;;;;;;;24.92;12.88;;;3.50;99.90;;;;;;2603526;54;20117;31
2023/03/04 10:33:21;;;;;;;21.85;12.52;;;3.60;99.90;;;;;;2603228;54;20935;31
2023/03/04 10:36:08;;;;;;;21.80;12.02;;;3.70;99.90;;;;;;2603252;54;20824;31
2023/03/04 10:38:44;;;;;;;21.77;11.60;;;3.70;99.90;;;;;;2621915;46;20037;31
2023/03/04 10:41:23;;;;;;;19.50;11.25;;;3.70;99.90;;;;;;2621812;46;20034;31
2023/03/04 10:44:04;;;;;;;21.63;12.00;;;3.80;99.90;;;;;;2621480;46;20868;31
2023/03/04 10:46:41;;;;;;;20.65;11.70;;;3.80;99.90;;;;;;2603245;54;20135;31
2023/03/04 10:49:21;;;;;;;22.30;12.13;;;3.80;99.90;;;;;;2603293;54;20897;31
2023/03/04 10:51:57;;;;;;;25.55;13.50;;;3.80;99.90;;;;;;2603358;54;20036;31
2023/03/04 10:54:32;;;;;;;22.77;11.80;;;3.90;99.90;;;;;;2603136;54;20054;31
2023/03/04 10:57:07;;;;;;;18.25;10.80;;;3.90;99.90;;;;;;2621069;46;20046;31
2023/03/04 10:59:50;;;;;;;17.30;10.90;;;4.00;99.90;;;;;;2602666;54;20851;31
2023/03/04 11:02:28;;;;;;;13.98;9.93;;;4.00;99.90;;;;;;2603389;54;19934;31
2023/03/04 11:05:20;;;;;;;15.20;9.63;;;4.10;99.90;;;;;;2603494;54;20034;31
2023/03/04 11:07:58;;;;;;;15.20;10.00;;;4.10;99.90;;;;;;2603356;54;20116;31
2023/03/04 11:10:40;;;;;;;12.75;8.50;;;4.10;99.90;;;;;;2603375;54;20026;31
2023/03/04 11:13:20;;;;;;;16.40;9.00;;;4.10;99.90;;;;;;2621535;46;20030;31
2023/03/04 11:15:59;;;;;;;13.63;8.65;;;4.10;99.90;;;;;;2603253;54;20033;31
2023/03/04 11:18:41;;;;;;;14.07;8.98;;;4.20;99.90;;;;;;2603351;54;20030;31
2023/03/04 11:21:21;;;;;;;14.32;8.65;;;4.20;99.90;;;;;;2603333;54;20033;31
2023/03/04 11:23:58;;;;;;;15.38;10.18;;;4.20;99.90;;;;;;2603099;54;20026;31
2023/03/04 11:29:12;;;;;;;14.82;9.63;;;4.20;99.90;;;;;;2622024;46;20034;31
2023/03/04 11:31:51;;;;;;;13.25;8.75;;;4.30;99.90;;;;;;2603056;54;20088;31
2023/03/04 11:34:33;;;;;;;15.00;9.00;;;4.30;99.90;;;;;;2621357;46;20910;31
2023/03/04 11:37:14;;;;;;;14.20;8.57;;;4.30;99.90;;;;;;2603015;54;20026;31
2023/03/04 11:39:51;;;;;;;11.95;8.00;;;4.40;99.90;;;;;;2603190;54;20030;31
2023/03/04 11:42:34;;;;;;;13.85;8.13;;;4.60;99.90;;;;;;2602316;54;19989;31
2023/03/04 11:45:16;;;;;;;13.10;7.82;;;4.70;99.90;;;;;;2602324;54;20879;31
2023/03/04 11:48:06;;;;;;;13.48;7.97;;;4.80;99.90;;;;;;2621596;46;20046;31
2023/03/04 11:50:47;;;;;;;12.15;7.28;;;4.80;99.90;;;;;;2621604;46;19989;31
2023/03/04 11:53:43;;;;;;;18.35;9.18;;;4.90;99.90;;;;;;2602195;54;19950;31
2023/03/04 11:56:27;;;;;;;11.93;8.07;;;4.90;99.90;;;;;;2621820;46;20026;31
2023/03/04 11:59:23;;;;;;;16.23;8.57;;;4.90;99.90;;;;;;2621444;47;20033;31
2023/03/04 12:02:07;;;;;;;12.30;8.00;;;4.90;99.90;;;;;;2602773;54;20033;31
2023/03/04 12:04:58;;;;;;;12.57;8.00;;;5.00;99.90;;;;;;2602834;54;20046;31
2023/03/04 12:08:16;;;;;;;15.07;8.02;;;5.00;99.90;;;;;;2602830;54;22383;31
2023/03/04 12:10:55;;;;;;;12.57;7.53;;;5.10;99.90;;;;;;2605993;47;20034;31
2023/03/04 12:13:42;;;;;;;16.15;8.43;;;5.10;99.90;;;;;;2603059;54;20030;31
2023/03/04 12:16:17;;;;;;;16.52;8.57;;;5.20;99.90;;;;;;2621352;47;20033;31
2023/03/04 12:19:03;;;;;;;14.63;9.00;;;5.20;99.90;;;;;;2621656;47;20752;31
2023/03/04 12:22:13;;;;;;;13.50;9.02;;;5.30;99.90;;;;;;2603095;54;20033;31
2023/03/04 12:25:12;;;;;;;12.90;9.00;;;5.40;99.90;;;;;;2602786;54;20036;31
2023/03/04 12:27:54;;;;;;;12.98;7.60;;;5.50;99.90;;;;;;2603100;54;20026;31
2023/03/04 12:30:40;;;;;;;12.67;7.27;;;5.60;99.90;;;;;;2602802;54;20124;31
2023/03/04 12:33:19;;;;;;;13.05;8.25;;;5.60;99.90;;;;;;2603035;54;20880;31
2023/03/04 12:35:58;;;;;;;14.40;8.85;;;5.60;99.90;;;;;;2701260;39;20501;31
2023/03/04 12:38:41;;;;;;;13.95;9.10;;;5.60;99.90;;;;;;2603046;54;20870;31
2023/03/04 12:41:27;;;;;;;16.30;10.00;;;5.50;99.90;;;;;;2622216;46;20030;31
2023/03/04 12:44:06;;;;;;;13.18;9.02;;;5.40;99.90;;;;;;2603763;54;20024;31
2023/03/04 12:46:50;;;;;;;15.37;8.90;;;5.40;99.90;;;;;;2603672;54;20033;31
2023/03/04 12:49:34;;;;;;;15.13;9.25;;;5.40;99.90;;;;;;2603570;54;20335;31
2023/03/04 12:52:16;;;;;;;11.43;7.63;;;5.40;99.90;;;;;;2603450;54;20038;31
2023/03/04 12:54:55;;;;;;;13.97;7.70;;;5.40;99.90;;;;;;2603738;54;20249;31
2023/03/04 12:57:33;;;;;;;12.25;7.85;;;5.40;99.90;;;;;;2622086;46;21073;31
2023/03/04 13:00:16;;;;;;;14.00;8.27;;;5.40;99.90;;;;;;2603900;54;20056;31
2023/03/04 13:03:12;;;;;;;13.65;7.85;;;5.40;99.90;;;;;;2603717;54;20037;31
2023/03/04 13:06:08;;;;;;;12.10;7.45;;;5.30;99.90;;;;;;2603817;54;20770;31
2023/03/04 13:08:53;;;;;;;13.65;8.75;;;5.20;99.90;;;;;;2603313;54;20880;31
2023/03/04 13:11:59;;;;;;;12.88;8.57;;;5.10;99.90;;;;;;2621953;46;20030;31
2023/03/04 13:14:35;;;;;;;13.88;8.93;;;5.10;99.90;;;;;;2603595;54;20100;31
2023/03/04 13:17:40;;;;;;;11.50;8.25;;;5.10;99.90;;;;;;2603504;54;20670;31
2023/03/04 13:20:16;;;;;;;16.33;8.10;;;5.10;99.90;;;;;;2603394;54;20051;31
2023/03/04 13:22:57;;;;;;;12.73;8.03;;;5.20;99.90;;;;;;2622265;46;20796;31
2023/03/04 13:25:40;;;;;;;10.75;6.75;;;5.20;99.90;;;;;;2603661;54;20904;31
2023/03/04 13:28:25;;;;;;;9.55;6.45;;;5.20;99.90;;;;;;2603319;54;20030;31
2023/03/04 13:31:22;;;;;;;8.23;6.25;;;5.20;99.90;;;;;;2622141;46;20036;31
2023/03/04 13:34:03;;;;;;;12.00;6.70;;;5.20;99.90;;;;;;2603436;54;20041;31
2023/03/04 13:36:57;;;;;;;9.00;6.47;;;5.20;99.90;;;;;;2603607;54;20121;31
2023/03/04 13:39:42;;;;;;;12.00;6.82;;;5.30;99.90;;;;;;2603522;54;20089;31
2023/03/04 13:42:34;;;;;;;9.40;6.67;;;5.30;99.90;;;;;;2603403;54;20876;31
2023/03/04 13:45:34;;;;;;;9.40;6.45;;;5.30;99.90;;;;;;2622242;46;20780;31
2023/03/04 13:48:22;;;;;;;9.73;6.53;;;5.30;99.90;;;;;;2603464;54;20895;31
2023/03/04 13:50:58;;;;;;;11.03;6.17;;;5.30;99.90;;;;;;2621866;46;20037;31
2023/03/04 13:53:43;;;;;;;9.90;5.93;;;5.30;99.90;;;;;;2603774;54;20879;31
2023/03/04 13:56:35;;;;;;;9.07;6.25;;;5.40;99.90;;;;;;2603335;54;20027;31
2023/03/04 13:59:15;;;;;;;8.80;6.80;;;5.50;99.90;;;;;;2603316;54;20817;31
2023/03/04 14:01:58;;;;;;;13.90;6.90;;;5.50;99.90;;;;;;2615250;46;20912;31
2023/03/04 14:04:36;;;;;;;9.30;6.65;;;5.50;99.90;;;;;;2602645;54;20030;31
2023/03/04 14:07:26;;;;;;;11.02;6.82;;;5.40;99.90;;;;;;2603688;54;20922;31
2023/03/04 14:10:03;;;;;;;13.70;7.57;;;5.50;99.90;;;;;;2621954;46;20093;31